sensor_id;sensor_type;location;lat;lon;timestamp;P1;durP1;ratioP1;P2;durP2;ratioP2
68076;SDS011;54866;53.458;14.540;2023-05-06T00:00:16;3.60;;;2.20;;
68076;SDS011;54866;53.458;14.540;2023-05-06T00:02:47;2.60;;;1.20;;
68076;SDS011;54866;53.458;14.540;2023-05-06T00:05:17;4.40;;;2.40;;
68076;SDS011;54866;53.458;14.540;2023-05-06T00:07:47;4.40;;;2.40;;
68076;SDS011;54866;53.458;14.540;2023-05-06T00:10:16;3.20;;;1.80;;
68076;SDS011;54866;53.458;14.540;2023-05-06T00:12:46;3.10;;;1.80;;
68076;SDS011;54866;53.458;14.540;2023-05-06T00:15:16;3.50;;;2.10;;
68076;SDS011;54866;53.458;14.540;2023-05-06T00:17:45;4.10;;;2.60;;
68076;SDS011;54866;53.458;14.540;2023-05-06T00:20:15;3.90;;;2.00;;
68076;SDS011;54866;53.458;14.540;2023-05-06T00:22:45;5.70;;;2.20;;
68076;SDS011;54866;53.458;14.540;2023-05-06T00:25:14;3.10;;;1.90;;
68076;SDS011;54866;53.458;14.540;2023-05-06T00:27:44;4.10;;;2.10;;
68076;SDS011;54866;53.458;14.540;2023-05-06T00:30:13;3.90;;;2.10;;
68076;SDS011;54866;53.458;14.540;2023-05-06T00:32:43;4.30;;;2.30;;
68076;SDS011;54866;53.458;14.540;2023-05-06T00:35:12;4.70;;;2.00;;
68076;SDS011;54866;53.458;14.540;2023-05-06T00:37:44;3.50;;;2.00;;
68076;SDS011;54866;53.458;14.540;2023-05-06T00:40:17;3.50;;;2.10;;
68076;SDS011;54866;53.458;14.540;2023-05-06T00:42:47;5.00;;;1.70;;
68076;SDS011;54866;53.458;14.540;2023-05-06T00:45:16;3.60;;;2.30;;
68076;SDS011;54866;53.458;14.540;2023-05-06T00:47:46;2.80;;;1.40;;
68076;SDS011;54866;53.458;14.540;2023-05-06T00:50:16;4.10;;;2.00;;
68076;SDS011;54866;53.458;14.540;2023-05-06T00:52:46;4.70;;;2.30;;
68076;SDS011;54866;53.458;14.540;2023-05-06T00:55:16;5.80;;;2.80;;
68076;SDS011;54866;53.458;14.540;2023-05-06T00:57:46;5.40;;;2.40;;
68076;SDS011;54866;53.458;14.540;2023-05-06T01:00:18;4.10;;;1.90;;
68076;SDS011;54866;53.458;14.540;2023-05-06T01:02:48;3.90;;;2.30;;
68076;SDS011;54866;53.458;14.540;2023-05-06T01:05:19;3.90;;;1.90;;
68076;SDS011;54866;53.458;14.540;2023-05-06T01:07:51;3.70;;;1.90;;
68076;SDS011;54866;53.458;14.540;2023-05-06T01:10:28;2.10;;;1.30;;
68076;SDS011;54866;53.458;14.540;2023-05-06T01:13:05;5.30;;;2.30;;
68076;SDS011;54866;53.458;14.540;2023-05-06T01:15:40;5.50;;;2.50;;
68076;SDS011;54866;53.458;14.540;2023-05-06T01:18:14;3.90;;;1.90;;
68076;SDS011;54866;53.458;14.540;2023-05-06T01:20:48;5.00;;;2.30;;
68076;SDS011;54866;53.458;14.540;2023-05-06T01:23:21;3.80;;;2.70;;
68076;SDS011;54866;53.458;14.540;2023-05-06T01:25:50;3.90;;;2.00;;
68076;SDS011;54866;53.458;14.540;2023-05-06T01:28:20;4.00;;;2.90;;
68076;SDS011;54866;53.458;14.540;2023-05-06T01:30:52;4.30;;;2.40;;
68076;SDS011;54866;53.458;14.540;2023-05-06T01:33:28;3.20;;;2.10;;
68076;SDS011;54866;53.458;14.540;2023-05-06T01:36:07;2.90;;;1.70;;
68076;SDS011;54866;53.458;14.540;2023-05-06T01:38:41;4.80;;;2.60;;
68076;SDS011;54866;53.458;14.540;2023-05-06T01:41:19;3.40;;;2.10;;
68076;SDS011;54866;53.458;14.540;2023-05-06T01:43:51;3.00;;;1.80;;
68076;SDS011;54866;53.458;14.540;2023-05-06T01:46:22;3.50;;;1.80;;
68076;SDS011;54866;53.458;14.540;2023-05-06T01:48:55;3.80;;;2.70;;
68076;SDS011;54866;53.458;14.540;2023-05-06T01:51:28;4.10;;;2.30;;
68076;SDS011;54866;53.458;14.540;2023-05-06T01:53:58;4.60;;;2.10;;
68076;SDS011;54866;53.458;14.540;2023-05-06T01:56:28;4.10;;;2.10;;
68076;SDS011;54866;53.458;14.540;2023-05-06T01:58:58;3.70;;;2.20;;
68076;SDS011;54866;53.458;14.540;2023-05-06T02:01:27;3.90;;;1.90;;
68076;SDS011;54866;53.458;14.540;2023-05-06T02:03:57;3.80;;;2.10;;
68076;SDS011;54866;53.458;14.540;2023-05-06T02:06:26;4.30;;;2.40;;
68076;SDS011;54866;53.458;14.540;2023-05-06T02:08:56;6.80;;;2.50;;
68076;SDS011;54866;53.458;14.540;2023-05-06T02:11:25;4.80;;;2.00;;
68076;SDS011;54866;53.458;14.540;2023-05-06T02:13:55;6.00;;;2.40;;
68076;SDS011;54866;53.458;14.540;2023-05-06T02:16:27;4.90;;;2.20;;
68076;SDS011;54866;53.458;14.540;2023-05-06T02:18:57;3.80;;;2.50;;
68076;SDS011;54866;53.458;14.540;2023-05-06T02:21:26;5.60;;;3.90;;
68076;SDS011;54866;53.458;14.540;2023-05-06T02:23:56;4.60;;;2.10;;
68076;SDS011;54866;53.458;14.540;2023-05-06T02:26:26;6.20;;;2.70;;
68076;SDS011;54866;53.458;14.540;2023-05-06T02:28:55;3.80;;;2.20;;
68076;SDS011;54866;53.458;14.540;2023-05-06T02:31:25;4.70;;;2.40;;
68076;SDS011;54866;53.458;14.540;2023-05-06T02:33:54;5.10;;;2.80;;
68076;SDS011;54866;53.458;14.540;2023-05-06T02:36:24;5.20;;;3.00;;
68076;SDS011;54866;53.458;14.540;2023-05-06T02:38:54;3.50;;;1.70;;
68076;SDS011;54866;53.458;14.540;2023-05-06T02:41:24;3.30;;;2.70;;
68076;SDS011;54866;53.458;14.540;2023-05-06T02:43:53;4.50;;;3.20;;
68076;SDS011;54866;53.458;14.540;2023-05-06T02:46:23;5.20;;;2.40;;
68076;SDS011;54866;53.458;14.540;2023-05-06T02:48:52;5.50;;;2.80;;
68076;SDS011;54866;53.458;14.540;2023-05-06T02:51:22;4.20;;;2.70;;
68076;SDS011;54866;53.458;14.540;2023-05-06T02:53:51;6.10;;;2.80;;
68076;SDS011;54866;53.458;14.540;2023-05-06T02:56:21;5.40;;;2.60;;
68076;SDS011;54866;53.458;14.540;2023-05-06T02:58:51;5.50;;;1.80;;
68076;SDS011;54866;53.458;14.540;2023-05-06T03:01:21;6.00;;;3.20;;
68076;SDS011;54866;53.458;14.540;2023-05-06T03:03:50;5.00;;;3.30;;
68076;SDS011;54866;53.458;14.540;2023-05-06T03:06:20;4.70;;;3.20;;
68076;SDS011;54866;53.458;14.540;2023-05-06T03:11:13;5.20;;;2.90;;
68076;SDS011;54866;53.458;14.540;2023-05-06T03:13:43;5.40;;;3.70;;
68076;SDS011;54866;53.458;14.540;2023-05-06T03:16:12;5.30;;;3.40;;
68076;SDS011;54866;53.458;14.540;2023-05-06T03:18:42;6.70;;;3.10;;
68076;SDS011;54866;53.458;14.540;2023-05-06T03:21:11;4.50;;;2.60;;
68076;SDS011;54866;53.458;14.540;2023-05-06T03:23:41;6.30;;;3.80;;
68076;SDS011;54866;53.458;14.540;2023-05-06T03:26:11;4.20;;;2.70;;
68076;SDS011;54866;53.458;14.540;2023-05-06T03:28:41;3.70;;;3.00;;
68076;SDS011;54866;53.458;14.540;2023-05-06T03:31:11;5.50;;;3.40;;
68076;SDS011;54866;53.458;14.540;2023-05-06T03:33:41;5.50;;;3.80;;
68076;SDS011;54866;53.458;14.540;2023-05-06T03:36:10;6.10;;;3.10;;
68076;SDS011;54866;53.458;14.540;2023-05-06T03:38:40;4.30;;;3.00;;
68076;SDS011;54866;53.458;14.540;2023-05-06T03:41:10;5.40;;;3.20;;
68076;SDS011;54866;53.458;14.540;2023-05-06T03:43:39;9.00;;;3.60;;
68076;SDS011;54866;53.458;14.540;2023-05-06T03:46:09;7.60;;;3.70;;
68076;SDS011;54866;53.458;14.540;2023-05-06T03:48:38;5.40;;;4.10;;
68076;SDS011;54866;53.458;14.540;2023-05-06T03:51:08;5.40;;;3.30;;
68076;SDS011;54866;53.458;14.540;2023-05-06T03:53:37;3.20;;;2.30;;
68076;SDS011;54866;53.458;14.540;2023-05-06T03:56:07;7.10;;;4.20;;
68076;SDS011;54866;53.458;14.540;2023-05-06T03:58:37;7.20;;;4.10;;
68076;SDS011;54866;53.458;14.540;2023-05-06T04:01:06;5.00;;;3.90;;
68076;SDS011;54866;53.458;14.540;2023-05-06T04:03:36;5.80;;;4.10;;
68076;SDS011;54866;53.458;14.540;2023-05-06T04:06:05;6.20;;;4.40;;
68076;SDS011;54866;53.458;14.540;2023-05-06T04:08:35;4.60;;;2.50;;
68076;SDS011;54866;53.458;14.540;2023-05-06T04:11:05;5.30;;;2.80;;
68076;SDS011;54866;53.458;14.540;2023-05-06T04:13:35;5.00;;;3.50;;
68076;SDS011;54866;53.458;14.540;2023-05-06T04:16:04;6.10;;;4.10;;
68076;SDS011;54866;53.458;14.540;2023-05-06T04:18:35;5.30;;;3.70;;
68076;SDS011;54866;53.458;14.540;2023-05-06T04:21:05;5.70;;;2.90;;
68076;SDS011;54866;53.458;14.540;2023-05-06T04:23:37;5.90;;;3.80;;
68076;SDS011;54866;53.458;14.540;2023-05-06T04:26:07;5.00;;;3.80;;
68076;SDS011;54866;53.458;14.540;2023-05-06T04:28:36;5.10;;;3.20;;
68076;SDS011;54866;53.458;14.540;2023-05-06T04:31:06;7.00;;;4.50;;
68076;SDS011;54866;53.458;14.540;2023-05-06T04:33:36;5.70;;;3.80;;
68076;SDS011;54866;53.458;14.540;2023-05-06T04:36:06;5.70;;;3.70;;
68076;SDS011;54866;53.458;14.540;2023-05-06T04:38:36;7.50;;;4.20;;
68076;SDS011;54866;53.458;14.540;2023-05-06T04:41:05;5.90;;;3.20;;
68076;SDS011;54866;53.458;14.540;2023-05-06T04:43:35;6.50;;;3.40;;
68076;SDS011;54866;53.458;14.540;2023-05-06T04:46:05;6.70;;;4.10;;
68076;SDS011;54866;53.458;14.540;2023-05-06T04:48:35;9.40;;;3.80;;
68076;SDS011;54866;53.458;14.540;2023-05-06T04:51:05;9.20;;;3.90;;
68076;SDS011;54866;53.458;14.540;2023-05-06T04:53:34;5.70;;;4.00;;
68076;SDS011;54866;53.458;14.540;2023-05-06T04:56:04;5.80;;;3.70;;
68076;SDS011;54866;53.458;14.540;2023-05-06T04:58:34;4.70;;;3.50;;
68076;SDS011;54866;53.458;14.540;2023-05-06T05:01:07;6.10;;;3.40;;
68076;SDS011;54866;53.458;14.540;2023-05-06T05:03:36;5.40;;;3.10;;
68076;SDS011;54866;53.458;14.540;2023-05-06T05:06:06;6.70;;;3.50;;
68076;SDS011;54866;53.458;14.540;2023-05-06T05:08:37;6.10;;;4.80;;
68076;SDS011;54866;53.458;14.540;2023-05-06T05:11:06;11.40;;;5.20;;
68076;SDS011;54866;53.458;14.540;2023-05-06T05:13:36;7.40;;;4.30;;
68076;SDS011;54866;53.458;14.540;2023-05-06T05:16:06;5.90;;;3.90;;
68076;SDS011;54866;53.458;14.540;2023-05-06T05:18:35;6.90;;;4.20;;
68076;SDS011;54866;53.458;14.540;2023-05-06T05:21:05;7.40;;;4.30;;
68076;SDS011;54866;53.458;14.540;2023-05-06T05:23:34;8.80;;;3.70;;
68076;SDS011;54866;53.458;14.540;2023-05-06T05:26:04;6.90;;;4.50;;
68076;SDS011;54866;53.458;14.540;2023-05-06T05:28:34;7.20;;;4.90;;
68076;SDS011;54866;53.458;14.540;2023-05-06T05:31:04;6.90;;;4.90;;
68076;SDS011;54866;53.458;14.540;2023-05-06T05:33:34;5.30;;;3.00;;
68076;SDS011;54866;53.458;14.540;2023-05-06T05:36:04;4.60;;;3.20;;
68076;SDS011;54866;53.458;14.540;2023-05-06T05:38:34;8.10;;;5.10;;
68076;SDS011;54866;53.458;14.540;2023-05-06T05:41:04;6.90;;;4.20;;
68076;SDS011;54866;53.458;14.540;2023-05-06T05:43:33;8.80;;;5.80;;
68076;SDS011;54866;53.458;14.540;2023-05-06T05:46:03;5.90;;;4.00;;
68076;SDS011;54866;53.458;14.540;2023-05-06T05:48:33;6.80;;;4.40;;
68076;SDS011;54866;53.458;14.540;2023-05-06T05:51:05;7.00;;;4.20;;
68076;SDS011;54866;53.458;14.540;2023-05-06T05:53:35;7.50;;;4.80;;
68076;SDS011;54866;53.458;14.540;2023-05-06T05:56:05;6.80;;;3.50;;
68076;SDS011;54866;53.458;14.540;2023-05-06T05:58:35;8.80;;;4.90;;
68076;SDS011;54866;53.458;14.540;2023-05-06T06:01:05;6.10;;;4.00;;
68076;SDS011;54866;53.458;14.540;2023-05-06T06:03:34;7.70;;;5.20;;
68076;SDS011;54866;53.458;14.540;2023-05-06T06:06:04;6.30;;;5.10;;
68076;SDS011;54866;53.458;14.540;2023-05-06T06:08:34;7.90;;;4.30;;
68076;SDS011;54866;53.458;14.540;2023-05-06T06:11:04;8.20;;;4.20;;
68076;SDS011;54866;53.458;14.540;2023-05-06T06:13:34;5.20;;;3.70;;
68076;SDS011;54866;53.458;14.540;2023-05-06T06:16:04;8.00;;;5.00;;
68076;SDS011;54866;53.458;14.540;2023-05-06T06:18:34;8.90;;;6.30;;
68076;SDS011;54866;53.458;14.540;2023-05-06T06:21:04;7.30;;;5.10;;
68076;SDS011;54866;53.458;14.540;2023-05-06T06:23:34;6.50;;;4.50;;
68076;SDS011;54866;53.458;14.540;2023-05-06T06:26:03;4.60;;;3.10;;
68076;SDS011;54866;53.458;14.540;2023-05-06T06:28:33;7.20;;;4.80;;
68076;SDS011;54866;53.458;14.540;2023-05-06T06:31:02;8.80;;;5.30;;
68076;SDS011;54866;53.458;14.540;2023-05-06T06:33:32;5.20;;;3.40;;
68076;SDS011;54866;53.458;14.540;2023-05-06T06:36:02;6.60;;;3.90;;
68076;SDS011;54866;53.458;14.540;2023-05-06T06:38:32;5.90;;;3.30;;
68076;SDS011;54866;53.458;14.540;2023-05-06T06:41:01;8.50;;;4.80;;
68076;SDS011;54866;53.458;14.540;2023-05-06T06:43:32;7.50;;;4.50;;
68076;SDS011;54866;53.458;14.540;2023-05-06T06:46:01;5.90;;;4.10;;
68076;SDS011;54866;53.458;14.540;2023-05-06T06:48:31;5.60;;;4.00;;
68076;SDS011;54866;53.458;14.540;2023-05-06T06:51:01;6.70;;;4.60;;
68076;SDS011;54866;53.458;14.540;2023-05-06T06:53:31;9.00;;;4.50;;
68076;SDS011;54866;53.458;14.540;2023-05-06T06:56:00;7.90;;;5.30;;
68076;SDS011;54866;53.458;14.540;2023-05-06T06:58:31;6.10;;;4.50;;
68076;SDS011;54866;53.458;14.540;2023-05-06T07:01:01;5.10;;;3.60;;
68076;SDS011;54866;53.458;14.540;2023-05-06T07:03:30;8.50;;;4.60;;
68076;SDS011;54866;53.458;14.540;2023-05-06T07:06:00;6.20;;;4.70;;
68076;SDS011;54866;53.458;14.540;2023-05-06T07:08:30;8.70;;;4.50;;
68076;SDS011;54866;53.458;14.540;2023-05-06T07:10:59;6.00;;;4.50;;
68076;SDS011;54866;53.458;14.540;2023-05-06T07:13:29;6.40;;;4.00;;
68076;SDS011;54866;53.458;14.540;2023-05-06T07:15:59;6.90;;;4.10;;
68076;SDS011;54866;53.458;14.540;2023-05-06T07:18:28;6.10;;;4.10;;
68076;SDS011;54866;53.458;14.540;2023-05-06T07:20:58;5.80;;;4.80;;
68076;SDS011;54866;53.458;14.540;2023-05-06T07:23:27;6.20;;;3.70;;
68076;SDS011;54866;53.458;14.540;2023-05-06T07:25:58;5.70;;;4.70;;
68076;SDS011;54866;53.458;14.540;2023-05-06T07:28:27;6.90;;;4.50;;
68076;SDS011;54866;53.458;14.540;2023-05-06T07:30:57;7.50;;;3.80;;
68076;SDS011;54866;53.458;14.540;2023-05-06T07:33:26;7.50;;;4.00;;
68076;SDS011;54866;53.458;14.540;2023-05-06T07:35:56;5.60;;;3.20;;
68076;SDS011;54866;53.458;14.540;2023-05-06T07:38:25;6.70;;;3.80;;
68076;SDS011;54866;53.458;14.540;2023-05-06T07:40:55;5.50;;;4.10;;
68076;SDS011;54866;53.458;14.540;2023-05-06T07:43:25;8.40;;;4.30;;
68076;SDS011;54866;53.458;14.540;2023-05-06T07:45:54;7.40;;;4.30;;
68076;SDS011;54866;53.458;14.540;2023-05-06T07:50:56;7.70;;;5.20;;
68076;SDS011;54866;53.458;14.540;2023-05-06T07:53:26;7.60;;;4.60;;
68076;SDS011;54866;53.458;14.540;2023-05-06T07:55:56;5.70;;;4.30;;
68076;SDS011;54866;53.458;14.540;2023-05-06T07:58:27;7.50;;;4.60;;
68076;SDS011;54866;53.458;14.540;2023-05-06T08:00:57;5.10;;;2.80;;
68076;SDS011;54866;53.458;14.540;2023-05-06T08:03:27;7.20;;;3.50;;
68076;SDS011;54866;53.458;14.540;2023-05-06T08:05:57;7.00;;;4.00;;
68076;SDS011;54866;53.458;14.540;2023-05-06T08:08:26;6.50;;;4.20;;
68076;SDS011;54866;53.458;14.540;2023-05-06T08:10:56;9.60;;;6.40;;
68076;SDS011;54866;53.458;14.540;2023-05-06T08:13:26;7.30;;;4.70;;
68076;SDS011;54866;53.458;14.540;2023-05-06T08:15:57;6.90;;;5.60;;
68076;SDS011;54866;53.458;14.540;2023-05-06T08:18:27;10.20;;;4.40;;
68076;SDS011;54866;53.458;14.540;2023-05-06T08:20:57;7.90;;;4.80;;
68076;SDS011;54866;53.458;14.540;2023-05-06T08:23:26;7.00;;;4.80;;
68076;SDS011;54866;53.458;14.540;2023-05-06T08:25:57;5.00;;;4.40;;
68076;SDS011;54866;53.458;14.540;2023-05-06T08:28:27;6.90;;;4.70;;
68076;SDS011;54866;53.458;14.540;2023-05-06T08:30:57;6.30;;;4.00;;
68076;SDS011;54866;53.458;14.540;2023-05-06T08:33:27;5.20;;;3.80;;
68076;SDS011;54866;53.458;14.540;2023-05-06T08:35:58;7.60;;;3.70;;
68076;SDS011;54866;53.458;14.540;2023-05-06T08:38:27;7.70;;;4.40;;
68076;SDS011;54866;53.458;14.540;2023-05-06T08:40:57;6.60;;;4.40;;
68076;SDS011;54866;53.458;14.540;2023-05-06T08:43:31;8.10;;;5.80;;
68076;SDS011;54866;53.458;14.540;2023-05-06T08:46:07;4.90;;;3.80;;
68076;SDS011;54866;53.458;14.540;2023-05-06T08:48:36;5.60;;;3.60;;
68076;SDS011;54866;53.458;14.540;2023-05-06T08:51:07;6.40;;;4.00;;
68076;SDS011;54866;53.458;14.540;2023-05-06T08:53:40;5.10;;;3.60;;
68076;SDS011;54866;53.458;14.540;2023-05-06T08:56:13;6.50;;;4.30;;
68076;SDS011;54866;53.458;14.540;2023-05-06T08:58:44;6.10;;;5.20;;
68076;SDS011;54866;53.458;14.540;2023-05-06T09:01:15;5.70;;;4.30;;
68076;SDS011;54866;53.458;14.540;2023-05-06T09:03:45;6.50;;;4.80;;
68076;SDS011;54866;53.458;14.540;2023-05-06T09:06:15;5.50;;;4.00;;
68076;SDS011;54866;53.458;14.540;2023-05-06T09:08:44;6.10;;;4.70;;
68076;SDS011;54866;53.458;14.540;2023-05-06T09:11:21;6.90;;;4.20;;
68076;SDS011;54866;53.458;14.540;2023-05-06T09:14:05;8.00;;;5.70;;
68076;SDS011;54866;53.458;14.540;2023-05-06T09:16:37;5.80;;;4.30;;
68076;SDS011;54866;53.458;14.540;2023-05-06T09:19:08;6.00;;;4.10;;
68076;SDS011;54866;53.458;14.540;2023-05-06T09:21:39;6.30;;;4.10;;
68076;SDS011;54866;53.458;14.540;2023-05-06T09:24:10;5.30;;;4.80;;
68076;SDS011;54866;53.458;14.540;2023-05-06T09:26:41;4.80;;;4.00;;
68076;SDS011;54866;53.458;14.540;2023-05-06T09:29:12;8.90;;;4.70;;
68076;SDS011;54866;53.458;14.540;2023-05-06T09:31:42;6.90;;;5.40;;
68076;SDS011;54866;53.458;14.540;2023-05-06T09:34:13;5.90;;;3.90;;
68076;SDS011;54866;53.458;14.540;2023-05-06T09:36:43;7.20;;;4.50;;
68076;SDS011;54866;53.458;14.540;2023-05-06T09:39:13;6.30;;;3.90;;
68076;SDS011;54866;53.458;14.540;2023-05-06T09:41:42;8.00;;;5.10;;
68076;SDS011;54866;53.458;14.540;2023-05-06T09:44:12;6.30;;;4.80;;
68076;SDS011;54866;53.458;14.540;2023-05-06T09:46:42;6.70;;;4.30;;
68076;SDS011;54866;53.458;14.540;2023-05-06T09:49:11;5.70;;;3.90;;
68076;SDS011;54866;53.458;14.540;2023-05-06T09:51:43;6.40;;;4.30;;
68076;SDS011;54866;53.458;14.540;2023-05-06T09:54:17;6.00;;;4.60;;
68076;SDS011;54866;53.458;14.540;2023-05-06T09:56:47;8.30;;;4.80;;
68076;SDS011;54866;53.458;14.540;2023-05-06T09:59:19;6.30;;;5.10;;
68076;SDS011;54866;53.458;14.540;2023-05-06T10:01:52;7.10;;;4.50;;
68076;SDS011;54866;53.458;14.540;2023-05-06T10:04:22;6.10;;;4.30;;
68076;SDS011;54866;53.458;14.540;2023-05-06T10:06:56;6.00;;;3.50;;
68076;SDS011;54866;53.458;14.540;2023-05-06T10:09:27;5.20;;;4.60;;
68076;SDS011;54866;53.458;14.540;2023-05-06T10:11:58;6.00;;;4.40;;
68076;SDS011;54866;53.458;14.540;2023-05-06T10:14:29;4.30;;;3.50;;
68076;SDS011;54866;53.458;14.540;2023-05-06T10:16:58;6.40;;;3.90;;
68076;SDS011;54866;53.458;14.540;2023-05-06T10:19:28;5.40;;;4.30;;
68076;SDS011;54866;53.458;14.540;2023-05-06T10:22:00;6.70;;;4.30;;
68076;SDS011;54866;53.458;14.540;2023-05-06T10:24:39;6.20;;;4.20;;
68076;SDS011;54866;53.458;14.540;2023-05-06T10:27:13;6.30;;;4.30;;
68076;SDS011;54866;53.458;14.540;2023-05-06T10:29:50;5.80;;;4.30;;
68076;SDS011;54866;53.458;14.540;2023-05-06T10:32:25;6.30;;;4.30;;
68076;SDS011;54866;53.458;14.540;2023-05-06T10:35:00;6.00;;;3.50;;
68076;SDS011;54866;53.458;14.540;2023-05-06T10:37:37;7.20;;;4.00;;
68076;SDS011;54866;53.458;14.540;2023-05-06T10:40:09;5.90;;;3.60;;
68076;SDS011;54866;53.458;14.540;2023-05-06T10:42:40;6.30;;;4.70;;
68076;SDS011;54866;53.458;14.540;2023-05-06T10:45:09;6.00;;;5.00;;
68076;SDS011;54866;53.458;14.540;2023-05-06T10:53:06;5.40;;;4.20;;
68076;SDS011;54866;53.458;14.540;2023-05-06T10:55:36;5.20;;;3.80;;
68076;SDS011;54866;53.458;14.540;2023-05-06T10:58:12;4.50;;;3.30;;
68076;SDS011;54866;53.458;14.540;2023-05-06T11:00:42;6.60;;;5.00;;
68076;SDS011;54866;53.458;14.540;2023-05-06T11:03:22;6.60;;;4.10;;
68076;SDS011;54866;53.458;14.540;2023-05-06T11:05:52;4.80;;;3.70;;
68076;SDS011;54866;53.458;14.540;2023-05-06T11:08:22;7.60;;;4.90;;
68076;SDS011;54866;53.458;14.540;2023-05-06T11:10:52;5.70;;;3.90;;
68076;SDS011;54866;53.458;14.540;2023-05-06T11:13:25;9.20;;;4.40;;
68076;SDS011;54866;53.458;14.540;2023-05-06T11:15:55;6.20;;;4.50;;
68076;SDS011;54866;53.458;14.540;2023-05-06T11:18:43;5.40;;;3.30;;
68076;SDS011;54866;53.458;14.540;2023-05-06T11:24:21;5.00;;;4.10;;
68076;SDS011;54866;53.458;14.540;2023-05-06T11:26:52;6.80;;;4.20;;
68076;SDS011;54866;53.458;14.540;2023-05-06T11:29:23;6.30;;;5.20;;
68076;SDS011;54866;53.458;14.540;2023-05-06T11:31:53;6.40;;;4.80;;
68076;SDS011;54866;53.458;14.540;2023-05-06T11:34:26;5.20;;;3.30;;
68076;SDS011;54866;53.458;14.540;2023-05-06T11:37:01;5.40;;;4.50;;
68076;SDS011;54866;53.458;14.540;2023-05-06T11:39:32;7.50;;;5.50;;
68076;SDS011;54866;53.458;14.540;2023-05-06T11:42:03;5.80;;;4.70;;
68076;SDS011;54866;53.458;14.540;2023-05-06T11:44:35;6.50;;;4.20;;
68076;SDS011;54866;53.458;14.540;2023-05-06T11:47:06;6.00;;;4.60;;
68076;SDS011;54866;53.458;14.540;2023-05-06T11:49:36;5.50;;;4.00;;
68076;SDS011;54866;53.458;14.540;2023-05-06T11:52:08;7.80;;;5.30;;
68076;SDS011;54866;53.458;14.540;2023-05-06T11:54:39;6.80;;;5.10;;
68076;SDS011;54866;53.458;14.540;2023-05-06T11:57:09;8.60;;;4.90;;
68076;SDS011;54866;53.458;14.540;2023-05-06T11:59:39;6.30;;;5.60;;
68076;SDS011;54866;53.458;14.540;2023-05-06T12:02:10;7.10;;;4.30;;
68076;SDS011;54866;53.458;14.540;2023-05-06T12:04:42;7.60;;;5.50;;
68076;SDS011;54866;53.458;14.540;2023-05-06T12:07:13;5.80;;;4.50;;
68076;SDS011;54866;53.458;14.540;2023-05-06T12:09:44;6.10;;;4.10;;
68076;SDS011;54866;53.458;14.540;2023-05-06T12:12:16;6.30;;;4.50;;
68076;SDS011;54866;53.458;14.540;2023-05-06T12:14:48;6.60;;;4.10;;
68076;SDS011;54866;53.458;14.540;2023-05-06T12:17:19;6.60;;;5.10;;
68076;SDS011;54866;53.458;14.540;2023-05-06T12:19:48;7.60;;;4.90;;
68076;SDS011;54866;53.458;14.540;2023-05-06T12:22:19;6.80;;;4.70;;
68076;SDS011;54866;53.458;14.540;2023-05-06T12:24:50;7.20;;;5.40;;
68076;SDS011;54866;53.458;14.540;2023-05-06T12:27:29;6.60;;;5.20;;
68076;SDS011;54866;53.458;14.540;2023-05-06T12:30:00;5.40;;;4.30;;
68076;SDS011;54866;53.458;14.540;2023-05-06T12:32:29;7.70;;;5.30;;
68076;SDS011;54866;53.458;14.540;2023-05-06T12:34:59;8.20;;;5.50;;
68076;SDS011;54866;53.458;14.540;2023-05-06T12:37:33;7.20;;;5.00;;
68076;SDS011;54866;53.458;14.540;2023-05-06T12:40:02;8.00;;;5.00;;
68076;SDS011;54866;53.458;14.540;2023-05-06T12:42:42;6.60;;;5.00;;
68076;SDS011;54866;53.458;14.540;2023-05-06T12:45:20;5.60;;;4.90;;
68076;SDS011;54866;53.458;14.540;2023-05-06T12:47:54;4.90;;;4.10;;
68076;SDS011;54866;53.458;14.540;2023-05-06T12:50:31;5.50;;;4.00;;
68076;SDS011;54866;53.458;14.540;2023-05-06T12:53:03;6.20;;;4.10;;
68076;SDS011;54866;53.458;14.540;2023-05-06T12:55:34;5.60;;;4.20;;
68076;SDS011;54866;53.458;14.540;2023-05-06T12:58:13;5.90;;;3.90;;
68076;SDS011;54866;53.458;14.540;2023-05-06T13:00:43;6.70;;;4.10;;
68076;SDS011;54866;53.458;14.540;2023-05-06T13:03:13;4.90;;;3.30;;
68076;SDS011;54866;53.458;14.540;2023-05-06T13:05:42;6.70;;;4.40;;
68076;SDS011;54866;53.458;14.540;2023-05-06T13:08:15;6.60;;;5.50;;
68076;SDS011;54866;53.458;14.540;2023-05-06T13:10:44;8.30;;;4.80;;
68076;SDS011;54866;53.458;14.540;2023-05-06T13:13:14;6.00;;;4.90;;
68076;SDS011;54866;53.458;14.540;2023-05-06T13:15:43;5.00;;;4.20;;
68076;SDS011;54866;53.458;14.540;2023-05-06T13:18:13;6.10;;;4.60;;
68076;SDS011;54866;53.458;14.540;2023-05-06T13:20:43;6.80;;;6.10;;
68076;SDS011;54866;53.458;14.540;2023-05-06T13:23:12;7.80;;;5.80;;
68076;SDS011;54866;53.458;14.540;2023-05-06T13:25:42;4.90;;;4.20;;
68076;SDS011;54866;53.458;14.540;2023-05-06T13:28:11;6.60;;;5.50;;
68076;SDS011;54866;53.458;14.540;2023-05-06T13:30:41;8.40;;;6.10;;
68076;SDS011;54866;53.458;14.540;2023-05-06T13:33:11;8.50;;;6.50;;
68076;SDS011;54866;53.458;14.540;2023-05-06T13:35:40;7.40;;;4.50;;
68076;SDS011;54866;53.458;14.540;2023-05-06T13:38:10;8.40;;;4.50;;
68076;SDS011;54866;53.458;14.540;2023-05-06T13:40:39;8.00;;;6.10;;
68076;SDS011;54866;53.458;14.540;2023-05-06T13:43:09;8.10;;;5.30;;
68076;SDS011;54866;53.458;14.540;2023-05-06T13:45:38;7.80;;;6.30;;
68076;SDS011;54866;53.458;14.540;2023-05-06T13:48:08;6.10;;;5.10;;
68076;SDS011;54866;53.458;14.540;2023-05-06T13:50:38;8.00;;;6.10;;
68076;SDS011;54866;53.458;14.540;2023-05-06T13:53:09;4.60;;;3.90;;
68076;SDS011;54866;53.458;14.540;2023-05-06T13:55:39;6.00;;;4.70;;
68076;SDS011;54866;53.458;14.540;2023-05-06T13:58:10;6.60;;;5.20;;
68076;SDS011;54866;53.458;14.540;2023-05-06T14:00:40;6.90;;;5.30;;
68076;SDS011;54866;53.458;14.540;2023-05-06T14:03:09;6.80;;;4.50;;
68076;SDS011;54866;53.458;14.540;2023-05-06T14:05:39;8.60;;;4.50;;
68076;SDS011;54866;53.458;14.540;2023-05-06T14:08:08;5.30;;;3.80;;
68076;SDS011;54866;53.458;14.540;2023-05-06T14:10:38;6.50;;;5.70;;
68076;SDS011;54866;53.458;14.540;2023-05-06T14:13:07;5.80;;;4.30;;
68076;SDS011;54866;53.458;14.540;2023-05-06T14:15:37;6.80;;;5.20;;
68076;SDS011;54866;53.458;14.540;2023-05-06T14:18:06;5.80;;;4.60;;
68076;SDS011;54866;53.458;14.540;2023-05-06T14:20:36;6.70;;;5.40;;
68076;SDS011;54866;53.458;14.540;2023-05-06T14:23:05;5.80;;;5.20;;
68076;SDS011;54866;53.458;14.540;2023-05-06T14:25:35;7.10;;;5.00;;
68076;SDS011;54866;53.458;14.540;2023-05-06T14:28:05;6.50;;;5.00;;
68076;SDS011;54866;53.458;14.540;2023-05-06T14:30:36;7.30;;;5.50;;
68076;SDS011;54866;53.458;14.540;2023-05-06T14:33:05;6.20;;;5.10;;
68076;SDS011;54866;53.458;14.540;2023-05-06T14:35:38;7.00;;;5.10;;
68076;SDS011;54866;53.458;14.540;2023-05-06T14:38:08;6.80;;;5.60;;
68076;SDS011;54866;53.458;14.540;2023-05-06T14:40:38;5.80;;;4.50;;
68076;SDS011;54866;53.458;14.540;2023-05-06T14:43:08;9.10;;;5.60;;
68076;SDS011;54866;53.458;14.540;2023-05-06T14:45:37;5.60;;;5.10;;
68076;SDS011;54866;53.458;14.540;2023-05-06T14:48:07;6.90;;;4.40;;
68076;SDS011;54866;53.458;14.540;2023-05-06T14:50:36;4.80;;;4.30;;
68076;SDS011;54866;53.458;14.540;2023-05-06T14:53:06;8.40;;;6.70;;
68076;SDS011;54866;53.458;14.540;2023-05-06T14:55:36;6.60;;;4.30;;
68076;SDS011;54866;53.458;14.540;2023-05-06T14:58:06;5.60;;;4.40;;
68076;SDS011;54866;53.458;14.540;2023-05-06T15:00:37;5.40;;;4.30;;
68076;SDS011;54866;53.458;14.540;2023-05-06T15:03:06;6.80;;;5.10;;
68076;SDS011;54866;53.458;14.540;2023-05-06T15:05:36;6.80;;;5.40;;